Time,TemperatureF,DewpointF,PressureIn,WindDirection,WindDirectionDegrees,WindSpeedMPH,WindSpeedGustMPH,Humidity,HourlyPrecipIn,Conditions,Clouds,dailyrainin,SoftwareType,DateUTC
2013-03-25 00:00:00,44.3,42.7,29.52,SW,227,1.0,4.0,94,0.00,,,1.35,Wunderground v.1.15,2013-03-25 04:00:00,
2013-03-25 00:05:00,44.2,42.6,29.52,NW,308,1.0,4.0,94,0.00,,,0.00,Wunderground v.1.15,2013-03-25 04:05:00,
2013-03-25 00:10:00,44.1,42.5,29.52,North,360,1.0,1.0,94,0.00,,,0.00,Wunderground v.1.15,2013-03-25 04:10:00,
2013-03-25 00:20:00,43.9,42.0,29.53,East,84,1.0,1.0,93,0.00,,,0.00,Wunderground v.1.15,2013-03-25 04:20:00,
2013-03-25 00:25:00,43.9,42.3,29.53,East,84,0.0,1.0,94,0.00,,,0.00,Wunderground v.1.15,2013-03-25 04:25:00,
2013-03-25 00:35:00,43.8,42.2,29.54,East,96,1.0,3.0,94,0.00,,,0.00,Wunderground v.1.15,2013-03-25 04:35:00,
2013-03-25 00:45:00,43.6,42.0,29.53,East,84,1.0,1.0,94,0.00,,,0.00,Wunderground v.1.15,2013-03-25 04:45:00,
2013-03-25 00:50:00,43.6,42.0,29.53,East,92,0.0,1.0,94,0.00,,,0.00,Wunderground v.1.15,2013-03-25 04:50:00,
2013-03-25 01:00:00,43.6,42.0,29.58,SSW,192,1.0,2.0,94,0.00,,,0.00,Wunderground v.1.15,2013-03-25 05:00:00,
2013-03-25 01:10:00,43.7,42.1,29.55,SSW,192,0.0,2.0,94,0.00,,,0.00,Wunderground v.1.15,2013-03-25 05:10:00,
2013-03-25 01:20:00,43.8,42.2,29.55,SSW,192,0.0,0.0,94,0.00,,,0.00,Wunderground v.1.15,2013-03-25 05:20:00,
2013-03-25 01:25:00,43.8,42.2,29.54,SSW,192,0.0,0.0,94,0.00,,,0.00,Wunderground v.1.15,2013-03-25 05:25:00,
2013-03-25 01:35:00,43.8,42.2,29.55,SSW,192,0.0,0.0,94,0.00,,,0.00,Wunderground v.1.15,2013-03-25 05:35:00,
2013-03-25 01:40:00,43.8,42.2,29.55,SSW,192,1.0,1.0,94,0.00,,,0.00,Wunderground v.1.15,2013-03-25 05:40:00,
2013-03-25 01:50:00,43.9,42.3,29.56,SSW,192,0.0,0.0,94,0.00,,,0.00,Wunderground v.1.15,2013-03-25 05:50:00,
2013-03-25 01:55:00,43.9,42.3,29.58,SSW,192,0.0,0.0,94,0.00,,,0.00,Wunderground v.1.15,2013-03-25 05:55:00,
2013-03-25 02:05:00,44.0,42.4,29.57,SSW,209,0.0,0.0,94,0.00,,,0.00,Wunderground v.1.15,2013-03-25 06:05:00,
2013-03-25 02:10:00,44.0,42.4,29.57,SSW,209,1.0,1.0,94,0.00,,,0.00,Wunderground v.1.15,2013-03-25 06:10:00,
2013-03-25 02:20:00,44.0,42.4,29.57,SSW,209,0.0,0.0,94,0.00,,,0.00,Wunderground v.1.15,2013-03-25 06:20:00,
2013-03-25 02:25:00,44.0,42.4,29.57,SSW,209,0.0,0.0,94,0.00,,,0.00,Wunderground v.1.15,2013-03-25 06:25:00,
2013-03-25 02:35:00,44.1,42.5,29.57,SSW,203,0.0,3.0,94,0.00,,,0.00,Wunderground v.1.15,2013-03-25 06:35:00,
2013-03-25 02:40:00,44.1,42.5,29.57,SSW,203,1.0,1.0,94,0.00,,,0.00,Wunderground v.1.15,2013-03-25 06:40:00,
2013-03-25 02:50:00,44.2,42.6,29.56,SW,230,1.0,2.0,94,0.00,,,0.00,Wunderground v.1.15,2013-03-25 06:50:00,
2013-03-25 02:55:00,44.3,43.0,29.57,SW,230,1.0,2.0,95,0.00,,,0.00,Wunderground v.1.15,2013-03-25 06:55:00,
2013-03-25 03:05:00,44.3,43.0,29.57,SW,233,1.0,2.0,95,0.00,,,0.00,Wunderground v.1.15,2013-03-25 07:05:00,
2013-03-25 03:10:00,44.4,43.1,29.58,WSW,252,1.0,2.0,95,0.00,,,0.00,Wunderground v.1.15,2013-03-25 07:10:00,
2013-03-25 03:20:00,44.4,43.1,29.58,WNW,288,2.0,2.0,95,0.00,,,0.00,Wunderground v.1.15,2013-03-25 07:20:00,
2013-03-25 03:30:00,44.4,43.1,29.57,WNW,290,2.0,3.0,95,0.00,,,0.00,Wunderground v.1.15,2013-03-25 07:30:00,
2013-03-25 03:35:00,44.3,43.0,29.58,WSW,242,2.0,3.0,95,0.00,,,0.00,Wunderground v.1.15,2013-03-25 07:35:00,
2013-03-25 03:45:00,44.3,43.0,29.57,WSW,247,2.0,2.0,95,0.00,,,0.00,Wunderground v.1.15,2013-03-25 07:45:00,
2013-03-25 03:50:00,44.2,42.9,29.57,WSW,244,2.0,2.0,95,0.00,,,0.00,Wunderground v.1.15,2013-03-25 07:50:00,
2013-03-25 04:00:00,44.2,42.9,29.57,West,277,2.0,2.0,95,0.00,,,0.00,Wunderground v.1.15,2013-03-25 08:00:00,
2013-03-25 04:10:00,44.3,43.0,29.57,SW,236,1.0,1.0,95,0.00,,,0.00,Wunderground v.1.15,2013-03-25 08:10:00,
2013-03-25 04:20:00,44.4,43.1,29.57,WSW,250,2.0,4.0,95,0.00,,,0.00,Wunderground v.1.15,2013-03-25 08:20:00,
2013-03-25 04:30:00,44.4,43.1,29.57,WSW,248,3.0,3.0,95,0.00,,,0.00,Wunderground v.1.15,2013-03-25 08:30:00,
2013-03-25 04:35:00,44.5,43.2,29.57,SSW,213,2.0,5.0,95,0.00,,,0.00,Wunderground v.1.15,2013-03-25 08:35:00,
2013-03-25 04:45:00,44.5,42.9,29.57,WNW,286,2.0,2.0,94,0.00,,,0.00,Wunderground v.1.15,2013-03-25 08:45:00,
2013-03-25 04:50:00,44.5,43.2,29.57,South,176,2.0,2.0,95,0.00,,,0.00,Wunderground v.1.15,2013-03-25 08:50:00,
2013-03-25 05:00:00,44.7,43.1,29.58,WNW,284,3.0,3.0,94,0.00,,,0.00,Wunderground v.1.15,2013-03-25 09:00:00,
2013-03-25 05:10:00,44.7,43.1,29.58,SW,232,2.0,2.0,94,0.00,,,0.00,Wunderground v.1.15,2013-03-25 09:10:00,
2013-03-25 05:15:00,44.8,43.2,29.58,WSW,247,2.0,2.0,94,0.00,,,0.00,Wunderground v.1.15,2013-03-25 09:15:00,
2013-03-25 05:25:00,44.8,43.2,29.58,WSW,242,2.0,7.0,94,0.00,,,0.00,Wunderground v.1.15,2013-03-25 09:25:00,
2013-03-25 05:30:00,44.8,42.9,29.58,SW,228,2.0,2.0,93,0.00,,,0.00,Wunderground v.1.15,2013-03-25 09:30:00,
2013-03-25 05:40:00,44.7,42.8,29.58,SSW,197,3.0,3.0,93,0.00,,,0.00,Wunderground v.1.15,2013-03-25 09:40:00,
2013-03-25 05:45:00,44.8,42.9,29.58,WSW,258,4.0,4.0,93,0.00,,,0.00,Wunderground v.1.15,2013-03-25 09:45:00,
2013-03-25 05:55:00,44.9,42.7,29.58,WSW,246,3.0,3.0,92,0.00,,,0.00,Wunderground v.1.15,2013-03-25 09:55:00,
2013-03-25 06:05:00,45.0,42.8,29.58,West,261,3.0,3.0,92,0.00,,,0.00,Wunderground v.1.15,2013-03-25 10:05:00,
2013-03-25 06:15:00,44.9,42.7,29.58,West,267,2.0,4.0,92,0.00,,,0.00,Wunderground v.1.15,2013-03-25 10:15:00,
2013-03-25 06:25:00,44.9,42.4,29.58,NW,322,3.0,4.0,91,0.00,,,0.00,Wunderground v.1.15,2013-03-25 10:25:00,
2013-03-25 06:35:00,44.9,42.1,29.59,WSW,246,4.0,4.0,90,0.00,,,0.00,Wunderground v.1.15,2013-03-25 10:35:00,
2013-03-25 06:40:00,44.8,42.0,29.59,WSW,251,3.0,3.0,90,0.00,,,0.00,Wunderground v.1.15,2013-03-25 10:40:00,
2013-03-25 06:50:00,44.7,41.7,29.59,WNW,282,3.0,6.0,89,0.00,,,0.00,Wunderground v.1.15,2013-03-25 10:50:00,
2013-03-25 07:00:00,44.6,41.0,29.59,West,280,4.0,6.0,87,0.00,,,0.00,Wunderground v.1.15,2013-03-25 11:00:00,
2013-03-25 07:10:00,44.5,40.0,29.60,WNW,288,5.0,7.0,84,0.00,,,0.00,Wunderground v.1.15,2013-03-25 11:10:00,
2013-03-25 07:20:00,44.4,39.6,29.60,West,268,5.0,5.0,83,0.00,,,0.00,Wunderground v.1.15,2013-03-25 11:20:00,
2013-03-25 07:30:00,44.2,39.4,29.60,West,273,4.0,4.0,83,0.00,,,0.00,Wunderground v.1.15,2013-03-25 11:30:00,
2013-03-25 07:35:00,44.1,39.6,29.60,West,281,4.0,7.0,84,0.00,,,0.00,Wunderground v.1.15,2013-03-25 11:35:00,
2013-03-25 07:45:00,44.2,38.4,29.60,West,269,6.0,9.0,80,0.00,,,0.00,Wunderground v.1.15,2013-03-25 11:45:00,
2013-03-25 07:55:00,44.3,37.9,29.61,West,259,5.0,6.0,78,0.00,,,0.00,Wunderground v.1.15,2013-03-25 11:55:00,
2013-03-25 08:05:00,44.6,37.8,29.61,West,266,4.0,4.0,77,0.00,,,0.00,Wunderground v.1.15,2013-03-25 12:05:00,
2013-03-25 08:10:00,44.7,36.9,29.62,West,281,5.0,5.0,74,0.00,,,0.00,Wunderground v.1.15,2013-03-25 12:10:00,
2013-03-25 08:20:00,44.9,36.4,29.62,West,273,5.0,5.0,72,0.00,,,0.00,Wunderground v.1.15,2013-03-25 12:20:00,
2013-03-25 08:25:00,44.9,36.1,29.62,West,273,6.0,6.0,71,0.00,,,0.00,Wunderground v.1.15,2013-03-25 12:25:00,
2013-03-25 08:35:00,45.2,36.0,29.63,West,269,5.0,7.0,70,0.00,,,0.00,Wunderground v.1.15,2013-03-25 12:35:00,
2013-03-25 08:40:00,45.3,35.7,29.63,WNW,298,4.0,7.0,69,0.00,,,0.01,Wunderground v.1.15,2013-03-25 12:40:00,
2013-03-25 08:50:00,45.4,35.1,29.63,West,269,6.0,9.0,67,0.00,,,0.01,Wunderground v.1.15,2013-03-25 12:50:00,
2013-03-25 08:55:00,45.6,35.6,29.64,WNW,292,6.0,9.0,68,0.00,,,0.01,Wunderground v.1.15,2013-03-25 12:55:00,
2013-03-25 09:05:00,46.0,35.7,29.64,NNW,336,6.0,7.0,67,0.00,,,0.01,Wunderground v.1.15,2013-03-25 13:05:00,
2013-03-25 09:10:00,46.0,35.3,29.63,WSW,251,7.0,7.0,66,0.00,,,0.01,Wunderground v.1.15,2013-03-25 13:10:00,
2013-03-25 09:20:00,46.3,35.6,29.63,SSE,159,6.0,6.0,66,0.00,,,0.01,Wunderground v.1.15,2013-03-25 13:20:00,
2013-03-25 09:30:00,46.5,35.4,29.64,WSW,250,7.0,7.0,65,0.00,,,0.01,Wunderground v.1.15,2013-03-25 13:30:00,
2013-03-25 09:40:00,46.9,35.4,29.63,SSW,212,6.0,10.0,64,0.00,,,0.01,Wunderground v.1.15,2013-03-25 13:40:00,
2013-03-25 09:45:00,47.0,35.4,29.63,WNW,287,6.0,10.0,64,0.00,,,0.01,Wunderground v.1.15,2013-03-25 13:45:00,
2013-03-25 09:55:00,47.3,35.7,29.63,West,279,7.0,8.0,64,0.00,,,0.01,Wunderground v.1.15,2013-03-25 13:55:00,
2013-03-25 10:05:00,47.6,34.8,29.63,West,261,7.0,7.0,61,0.00,,,0.01,Wunderground v.1.15,2013-03-25 14:05:00,
2013-03-25 10:15:00,47.8,34.6,29.63,WNW,288,7.0,11.0,60,0.00,,,0.01,Wunderground v.1.15,2013-03-25 14:15:00,
2013-03-25 10:25:00,48.4,35.1,29.63,SW,229,6.0,13.0,60,0.00,,,0.01,Wunderground v.1.15,2013-03-25 14:25:00,
2013-03-25 10:30:00,48.9,35.2,29.63,WNW,287,6.0,6.0,59,0.00,,,0.01,Wunderground v.1.15,2013-03-25 14:30:00,
2013-03-25 10:40:00,49.3,34.7,29.63,West,273,5.0,6.0,57,0.00,,,0.01,Wunderground v.1.15,2013-03-25 14:40:00,
2013-03-25 10:45:00,49.2,34.2,29.64,NW,309,7.0,14.0,56,0.00,,,0.01,Wunderground v.1.15,2013-03-25 14:45:00,
2013-03-25 10:55:00,49.4,34.3,29.64,West,271,8.0,9.0,56,0.00,,,0.01,Wunderground v.1.15,2013-03-25 14:55:00,
2013-03-25 11:00:00,49.6,33.2,29.64,WSW,254,8.0,9.0,53,0.00,,,0.01,Wunderground v.1.15,2013-03-25 15:00:00,
2013-03-25 11:10:00,50.2,33.2,29.64,North,349,7.0,7.0,52,0.00,,,0.01,Wunderground v.1.15,2013-03-25 15:10:00,
2013-03-25 11:15:00,50.1,32.7,29.64,SSW,211,7.0,7.0,51,0.00,,,0.01,Wunderground v.1.15,2013-03-25 15:15:00,
2013-03-25 11:25:00,50.6,32.6,29.64,West,272,7.0,7.0,50,0.00,,,0.01,Wunderground v.1.15,2013-03-25 15:25:00,
2013-03-25 11:35:00,50.7,33.2,29.63,West,281,7.0,18.0,51,0.00,,,0.01,Wunderground v.1.15,2013-03-25 15:35:00,
2013-03-25 11:45:00,50.9,33.4,29.64,NW,325,7.0,7.0,51,0.00,,,0.01,Wunderground v.1.15,2013-03-25 15:45:00,
2013-03-25 11:55:00,51.1,33.6,29.64,West,276,7.0,8.0,51,0.00,,,0.01,Wunderground v.1.15,2013-03-25 15:55:00,
2013-03-25 12:00:00,51.4,33.9,29.64,NW,304,7.0,9.0,51,0.00,,,0.01,Wunderground v.1.15,2013-03-25 16:00:00,
2013-03-25 12:05:00,51.6,34.0,29.64,West,267,7.0,9.0,51,0.00,,,0.01,Wunderground v.1.15,2013-03-25 16:05:00,
2013-03-25 12:15:00,52.2,33.6,29.64,West,271,7.0,8.0,49,0.00,,,0.01,Wunderground v.1.15,2013-03-25 16:15:00,
2013-03-25 12:25:00,52.2,34.6,29.64,West,259,6.0,9.0,51,0.00,,,0.01,Wunderground v.1.15,2013-03-25 16:25:00,
2013-03-25 12:35:00,51.9,32.3,29.64,West,266,8.0,12.0,47,0.00,,,0.01,Wunderground v.1.15,2013-03-25 16:35:00,
2013-03-25 12:45:00,52.7,33.5,29.64,West,265,7.0,7.0,48,0.00,,,0.01,Wunderground v.1.15,2013-03-25 16:45:00,
2013-03-25 12:50:00,52.8,34.2,29.64,NW,307,7.0,7.0,49,0.00,,,0.01,Wunderground v.1.15,2013-03-25 16:50:00,
2013-03-25 13:00:00,52.1,33.0,29.64,WSW,258,8.0,10.0,48,0.00,,,0.01,Wunderground v.1.15,2013-03-25 17:00:00,
2013-03-25 13:10:00,53.0,33.3,29.64,WNW,288,7.0,7.0,47,0.00,,,0.01,Wunderground v.1.15,2013-03-25 17:10:00,
2013-03-25 13:20:00,53.6,32.8,29.64,WSW,240,8.0,8.0,45,0.00,,,0.01,Wunderground v.1.15,2013-03-25 17:20:00,
2013-03-25 13:30:00,53.4,32.6,29.64,West,281,8.0,8.0,45,0.00,,,0.01,Wunderground v.1.15,2013-03-25 17:30:00,
2013-03-25 13:40:00,53.8,34.0,29.64,SW,233,6.0,13.0,47,0.00,,,0.01,Wunderground v.1.15,2013-03-25 17:40:00,
2013-03-25 13:45:00,53.7,32.8,29.63,West,264,7.0,13.0,45,0.00,,,0.01,Wunderground v.1.15,2013-03-25 17:45:00,
2013-03-25 13:55:00,54.3,33.4,29.63,WNW,298,6.0,10.0,45,0.00,,,0.01,Wunderground v.1.15,2013-03-25 17:55:00,
2013-03-25 14:00:00,53.7,32.3,29.64,WNW,298,7.0,7.0,44,0.00,,,0.01,Wunderground v.1.15,2013-03-25 18:00:00,
2013-03-25 14:10:00,53.5,31.5,29.64,West,267,8.0,16.0,43,0.00,,,0.01,Wunderground v.1.15,2013-03-25 18:10:00,
2013-03-25 14:20:00,54.0,32.0,29.63,WNW,302,9.0,9.0,43,0.00,,,0.01,Wunderground v.1.15,2013-03-25 18:20:00,
2013-03-25 14:30:00,52.8,30.9,29.64,WSW,257,8.0,12.0,43,0.00,,,0.01,Wunderground v.1.15,2013-03-25 18:30:00,
2013-03-25 14:40:00,53.2,29.5,29.64,West,271,9.0,9.0,40,0.00,,,0.01,Wunderground v.1.15,2013-03-25 18:40:00,
2013-03-25 14:45:00,52.6,29.5,29.64,WSW,257,9.0,12.0,41,0.00,,,0.01,Wunderground v.1.15,2013-03-25 18:45:00,
2013-03-25 14:55:00,51.7,29.9,29.64,West,278,7.0,8.0,43,0.00,,,0.01,Wunderground v.1.15,2013-03-25 18:55:00,
2013-03-25 15:05:00,53.6,32.2,29.64,West,268,7.0,9.0,44,0.00,,,0.01,Wunderground v.1.15,2013-03-25 19:05:00,
2013-03-25 15:10:00,53.4,29.7,29.64,West,263,7.0,12.0,40,0.00,,,0.01,Wunderground v.1.15,2013-03-25 19:10:00,
2013-03-25 15:20:00,52.9,29.2,29.64,West,264,9.0,9.0,40,0.00,,,0.01,Wunderground v.1.15,2013-03-25 19:20:00,
2013-03-25 15:25:00,53.2,30.1,29.64,NW,322,9.0,9.0,41,0.00,,,0.01,Wunderground v.1.15,2013-03-25 19:25:00,
2013-03-25 15:35:00,52.6,29.5,29.64,NNW,335,8.0,10.0,41,0.00,,,0.01,Wunderground v.1.15,2013-03-25 19:35:00,
2013-03-25 15:40:00,53.2,28.9,29.64,West,275,8.0,8.0,39,0.00,,,0.01,Wunderground v.1.15,2013-03-25 19:40:00,
2013-03-25 15:50:00,53.3,30.2,29.64,North,355,7.0,7.0,41,0.00,,,0.01,Wunderground v.1.15,2013-03-25 19:50:00,
2013-03-25 16:00:00,53.2,28.9,29.65,WNW,302,8.0,8.0,39,0.00,,,0.01,Wunderground v.1.15,2013-03-25 20:00:00,
2013-03-25 16:10:00,53.5,29.7,29.65,West,277,7.0,10.0,40,0.00,,,0.01,Wunderground v.1.15,2013-03-25 20:10:00,
2013-03-25 16:20:00,54.1,29.7,29.65,West,271,7.0,7.0,39,0.00,,,0.01,Wunderground v.1.15,2013-03-25 20:20:00,
2013-03-25 16:25:00,53.5,28.5,29.66,SW,232,8.0,18.0,38,0.00,,,0.01,Wunderground v.1.15,2013-03-25 20:25:00,
2013-03-25 16:35:00,53.1,28.8,29.65,WSW,241,7.0,16.0,39,0.00,,,0.01,Wunderground v.1.15,2013-03-25 20:35:00,
2013-03-25 16:40:00,53.6,29.8,29.66,NW,311,8.0,8.0,40,0.00,,,0.01,Wunderground v.1.15,2013-03-25 20:40:00,
2013-03-25 16:50:00,52.8,28.5,29.66,West,264,8.0,8.0,39,0.00,,,0.01,Wunderground v.1.15,2013-03-25 20:50:00,
2013-03-25 16:55:00,52.3,29.3,29.66,WNW,290,7.0,9.0,41,0.00,,,0.01,Wunderground v.1.15,2013-03-25 20:55:00,
2013-03-25 17:05:00,51.6,28.0,29.67,WSW,240,8.0,13.0,40,0.00,,,0.01,Wunderground v.1.15,2013-03-25 21:05:00,
2013-03-25 17:10:00,52.4,28.8,29.66,NNW,338,8.0,8.0,40,0.00,,,0.01,Wunderground v.1.15,2013-03-25 21:10:00,
2013-03-25 17:20:00,52.9,28.6,29.67,West,267,8.0,10.0,39,0.00,,,0.01,Wunderground v.1.15,2013-03-25 21:20:00,
2013-03-25 17:30:00,52.9,28.0,29.67,West,271,7.0,10.0,38,0.00,,,0.01,Wunderground v.1.15,2013-03-25 21:30:00,
2013-03-25 17:40:00,52.3,27.4,29.68,West,279,7.0,12.0,38,0.00,,,0.01,Wunderground v.1.15,2013-03-25 21:40:00,
2013-03-25 17:45:00,52.7,27.8,29.68,WSW,247,6.0,12.0,38,0.00,,,0.01,Wunderground v.1.15,2013-03-25 21:45:00,
2013-03-25 17:55:00,52.7,27.8,29.68,West,275,6.0,7.0,38,0.00,,,0.01,Wunderground v.1.15,2013-03-25 21:55:00,
2013-03-25 18:00:00,52.2,26.7,29.69,West,266,7.0,9.0,37,0.00,,,0.01,Wunderground v.1.15,2013-03-25 22:00:00,
2013-03-25 18:10:00,52.3,27.4,29.69,NW,317,6.0,6.0,38,0.00,,,0.01,Wunderground v.1.15,2013-03-25 22:10:00,
2013-03-25 18:20:00,52.1,27.9,29.69,WNW,303,6.0,6.0,39,0.00,,,0.01,Wunderground v.1.15,2013-03-25 22:20:00,
2013-03-25 18:30:00,51.2,27.1,29.70,West,275,6.0,7.0,39,0.00,,,0.01,Wunderground v.1.15,2013-03-25 22:30:00,
2013-03-25 18:40:00,50.9,27.4,29.71,WSW,245,6.0,6.0,40,0.00,,,0.01,Wunderground v.1.15,2013-03-25 22:40:00,
2013-03-25 18:50:00,50.3,26.3,29.72,NW,311,7.0,7.0,39,0.00,,,0.01,Wunderground v.1.15,2013-03-25 22:50:00,
2013-03-25 18:55:00,50.0,26.6,29.72,NW,317,7.0,7.0,40,0.00,,,0.01,Wunderground v.1.15,2013-03-25 22:55:00,
2013-03-25 19:00:00,49.7,26.9,29.73,West,273,6.0,6.0,41,0.00,,,0.01,Wunderground v.1.15,2013-03-25 23:00:00,
2013-03-25 19:10:00,48.9,26.2,29.73,NW,315,6.0,6.0,41,0.00,,,0.01,Wunderground v.1.15,2013-03-25 23:10:00,
2013-03-25 19:15:00,48.7,26.6,29.74,West,271,5.0,8.0,42,0.00,,,0.01,Wunderground v.1.15,2013-03-25 23:15:00,
2013-03-25 19:25:00,48.3,27.4,29.75,NW,304,4.0,5.0,44,0.00,,,0.01,Wunderground v.1.15,2013-03-25 23:25:00,
2013-03-25 19:35:00,47.9,27.6,29.75,NW,316,3.0,5.0,45,0.00,,,0.01,Wunderground v.1.15,2013-03-25 23:35:00,
2013-03-25 19:40:00,47.6,27.3,29.76,West,272,3.0,3.0,45,0.00,,,0.01,Wunderground v.1.15,2013-03-25 23:40:00,
2013-03-25 19:50:00,47.6,26.7,29.76,West,269,5.0,5.0,44,0.00,,,0.01,Wunderground v.1.15,2013-03-25 23:50:00,
2013-03-25 20:00:00,47.3,27.0,29.77,WNW,286,3.0,3.0,45,0.00,,,0.01,Wunderground v.1.15,2013-03-26 00:00:00,
2013-03-25 20:05:00,47.1,27.4,29.77,WNW,289,3.0,3.0,46,0.00,,,0.01,Wunderground v.1.15,2013-03-26 00:05:00,
2013-03-25 20:15:00,46.8,27.1,29.78,WSW,253,3.0,3.0,46,0.00,,,0.01,Wunderground v.1.15,2013-03-26 00:15:00,
2013-03-25 20:25:00,46.7,26.5,29.78,WSW,258,4.0,5.0,45,0.00,,,0.01,Wunderground v.1.15,2013-03-26 00:25:00,
2013-03-25 20:30:00,46.7,26.5,29.78,West,277,4.0,5.0,45,0.00,,,0.01,Wunderground v.1.15,2013-03-26 00:30:00,
2013-03-25 20:40:00,46.6,26.4,29.79,NW,304,6.0,6.0,45,0.00,,,0.01,Wunderground v.1.15,2013-03-26 00:40:00,
2013-03-25 20:45:00,46.4,26.2,29.79,West,263,5.0,7.0,45,0.00,,,0.01,Wunderground v.1.15,2013-03-26 00:45:00,
2013-03-25 20:55:00,46.1,26.4,29.79,West,262,4.0,6.0,46,0.00,,,0.01,Wunderground v.1.15,2013-03-26 00:55:00,
2013-03-25 21:00:00,45.9,26.8,29.80,West,259,4.0,4.0,47,0.00,,,0.01,Wunderground v.1.15,2013-03-26 01:00:00,
2013-03-25 21:10:00,45.6,26.5,29.80,WNW,284,4.0,4.0,47,0.00,,,0.01,Wunderground v.1.15,2013-03-26 01:10:00,
2013-03-25 21:15:00,45.4,26.3,29.80,West,277,4.0,9.0,47,0.00,,,0.01,Wunderground v.1.15,2013-03-26 01:15:00,
2013-03-25 21:25:00,45.6,26.0,29.81,WSW,250,6.0,7.0,46,0.00,,,0.01,Wunderground v.1.15,2013-03-26 01:25:00,
2013-03-25 21:30:00,45.5,26.4,29.82,WNW,298,5.0,5.0,47,0.00,,,0.01,Wunderground v.1.15,2013-03-26 01:30:00,
2013-03-25 21:40:00,45.2,26.1,29.82,West,271,4.0,8.0,47,0.00,,,0.01,Wunderground v.1.15,2013-03-26 01:40:00,
2013-03-25 21:45:00,45.1,26.6,29.82,WNW,303,4.0,8.0,48,0.00,,,0.01,Wunderground v.1.15,2013-03-26 01:45:00,
2013-03-25 21:55:00,44.9,26.4,29.83,WSW,255,4.0,7.0,48,0.00,,,0.01,Wunderground v.1.15,2013-03-26 01:55:00,
2013-03-25 22:05:00,44.6,26.6,29.83,West,271,4.0,4.0,49,0.00,,,0.01,Wunderground v.1.15,2013-03-26 02:05:00,
2013-03-25 22:15:00,44.4,26.4,29.83,WSW,256,4.0,6.0,49,0.00,,,0.01,Wunderground v.1.15,2013-03-26 02:15:00,
2013-03-25 22:25:00,44.2,26.2,29.84,West,275,4.0,6.0,49,0.00,,,0.01,Wunderground v.1.15,2013-03-26 02:25:00,
2013-03-25 22:30:00,44.1,26.6,29.84,WNW,288,4.0,4.0,50,0.00,,,0.01,Wunderground v.1.15,2013-03-26 02:30:00,
2013-03-25 22:40:00,43.9,26.9,29.85,WSW,239,4.0,5.0,51,0.00,,,0.01,Wunderground v.1.15,2013-03-26 02:40:00,
2013-03-25 22:50:00,43.6,27.1,29.85,WSW,246,3.0,3.0,52,0.00,,,0.01,Wunderground v.1.15,2013-03-26 02:50:00,
2013-03-25 23:00:00,43.3,26.8,29.86,WNW,291,4.0,6.0,52,0.00,,,0.01,Wunderground v.1.15,2013-03-26 03:00:00,
2013-03-25 23:05:00,43.3,26.4,29.86,West,260,4.0,6.0,51,0.00,,,0.01,Wunderground v.1.15,2013-03-26 03:05:00,
2013-03-25 23:15:00,43.1,26.2,29.86,West,270,4.0,12.0,51,0.00,,,0.01,Wunderground v.1.15,2013-03-26 03:15:00,
2013-03-25 23:20:00,43.2,26.3,29.86,West,281,4.0,6.0,51,0.00,,,0.01,Wunderground v.1.15,2013-03-26 03:20:00,
2013-03-25 23:30:00,43.1,26.2,29.86,WNW,283,4.0,5.0,51,0.00,,,0.01,Wunderground v.1.15,2013-03-26 03:30:00,
2013-03-25 23:40:00,42.7,26.3,29.87,West,272,3.0,8.0,52,0.00,,,0.01,Wunderground v.1.15,2013-03-26 03:40:00,
2013-03-25 23:50:00,42.5,26.6,29.86,WSW,256,3.0,3.0,53,0.00,,,0.01,Wunderground v.1.15,2013-03-26 03:50:00,
2013-03-25 23:55:00,42.2,26.7,29.86,West,274,2.0,7.0,54,0.00,,,0.01,Wunderground v.1.15,2013-03-26 03:55:00,